Armony — 5IM517 — position and weather

sailwx.info

Track history (hours):
 
Tides and Currents Weather Stations Pressure Air Temp Water Temp Dewpoint Dewpoint Depression Visibility Wind Speed Wind Dir Waves Ship Positions

Armony

Last reported at 2014-Oct-25 08:09 UTC. Time now 2014-Oct-26 01:03 UTC.
Position N 40°45' E 029°31'.

Length 70 m; draft 3 m.

Type: Ship. MMSI: 677041700.

Date/timePositionNaut miles runAvg speedWind from/ knotsBaromVisibWave heightAir tempDewpointWater temp
2014-Oct-25 08:09N 40°45' E 029°31'4 7.0
2014-Oct-25 07:32N 40°44' E 029°25'5 5.1
2014-Oct-25 06:33N 40°44' E 029°19'7 7.0
2014-Oct-25 05:33N 40°46' E 029°10'7 7.1
2014-Oct-25 04:33N 40°48' E 029°01'6 6.3
2014-Oct-25 03:33N 40°54' E 028°57'  
2014-Oct-19 20:17N 40°59' E 028°60'4 5.3
2014-Oct-19 19:33N 40°56' E 028°59'5 5.0
2014-Oct-19 18:32N 40°51' E 029°02'4 4.0
2014-Oct-19 17:33N 40°48' E 029°06'3 3.4
2014-Oct-19 16:33N 40°51' E 029°09'1 1.1
2014-Oct-19 15:30N 40°51' E 029°10'0 0.0
2014-Oct-19 14:24N 40°51' E 029°10'0 0.0
2014-Oct-19 13:33N 40°51' E 029°10'0 0.0
2014-Oct-19 12:21N 40°51' E 029°10'0 0.0
2014-Oct-19 11:33N 40°51' E 029°10'0 0.0
2014-Oct-19 10:27N 40°51' E 029°10'0 0.0
2014-Oct-19 09:15N 40°51' E 029°10'0 0.0
2014-Oct-19 08:33N 40°51' E 029°10'0 0.0
2014-Oct-19 07:33N 40°51' E 029°10'0 0.0
2014-Oct-19 06:27N 40°51' E 029°10'0 0.1
2014-Oct-19 05:33N 40°51' E 029°10'0 0.0
2014-Oct-19 04:27N 40°51' E 029°10'0 0.0
2014-Oct-19 03:27N 40°51' E 029°10'0 0.0
2014-Oct-19 02:33N 40°51' E 029°10'0 0.0
2014-Oct-19 01:33N 40°51' E 029°10'0 0.0
2014-Oct-19 00:21N 40°51' E 029°10'0 0.0
2014-Oct-18 23:27N 40°51' E 029°10'0 0.0
2014-Oct-18 22:21N 40°51' E 029°10'0 0.1
2014-Oct-18 21:33N 40°51' E 029°10'0 0.0
2014-Oct-18 20:33N 40°51' E 029°10'0 0.0
2014-Oct-18 19:21N 40°51' E 029°10'0 0.0
2014-Oct-18 18:33N 40°51' E 029°10'0 0.0
2014-Oct-18 17:15N 40°51' E 029°10'0 0.0
2014-Oct-18 16:27N 40°51' E 029°10'0 0.0
2014-Oct-18 15:33N 40°51' E 029°10'0 0.0
2014-Oct-18 14:27N 40°51' E 029°10'0 0.0
2014-Oct-18 13:27N 40°51' E 029°10'3 3.4
2014-Oct-18 12:32N 40°49' E 029°09'8 7.8
2014-Oct-18 11:32N 40°45' E 028°59'8 8.1
2014-Oct-18 10:32N 40°43' E 028°49'4 4.1
2014-Oct-18 09:33N 40°42' E 028°44'60 3.9
2014-Oct-17 18:17N 40°39' E 027°25'26 8.6
2014-Oct-17 15:16N 40°29' E 026°54'7 8.2
2014-Oct-17 14:24N 40°26' E 026°46'23 7.7
2014-Oct-17 11:22N 40°09' E 026°24'30 7.2
2014-Oct-17 07:09N 39°51' E 025°52'127 7.9
2014-Oct-16 15:05N 37°58' E 024°37'4 8.4
2014-Oct-16 14:33N 37°55' E 024°34'9 8.9
2014-Oct-16 13:33N 37°49' E 024°25'19 8.9
2014-Oct-16 11:28N 37°37' E 024°07'9 9.3
2014-Oct-16 10:30N 37°37' E 023°56'8 8.0
2014-Oct-16 09:33N 37°39' E 023°46'8 7.5
2014-Oct-16 08:33N 37°44' E 023°40'8 8.4
2014-Oct-16 07:33N 37°52' E 023°37'7 7.1
2014-Oct-16 06:33N 37°58' E 023°33'4 3.5
2014-Oct-16 05:33N 38°02' E 023°33'0 0.0
2014-Oct-16 04:30N 38°02' E 023°33'0 0.0
2014-Oct-16 03:30N 38°02' E 023°33'0 0.0
2014-Oct-16 02:30N 38°02' E 023°33'0 0.0
2014-Oct-16 01:30N 38°02' E 023°33'0 0.0
2014-Oct-16 00:30N 38°02' E 023°33'0 0.0
2014-Oct-15 23:30N 38°02' E 023°33'0 0.0
2014-Oct-15 22:30N 38°02' E 023°33'0 0.0
2014-Oct-15 21:30N 38°02' E 023°33'0 0.0
2014-Oct-15 20:30N 38°02' E 023°33'0 0.0
2014-Oct-15 19:24N 38°02' E 023°33'0 0.0
2014-Oct-15 18:30N 38°02' E 023°33'0 0.0
2014-Oct-15 17:24N 38°02' E 023°33'0 0.0
2014-Oct-15 16:24N 38°02' E 023°33'0 0.0
2014-Oct-15 15:06N 38°02' E 023°33'0 0.0
2014-Oct-15 14:30N 38°02' E 023°33'0 0.0
2014-Oct-15 13:33N 38°02' E 023°33'0 0.0
2014-Oct-15 10:30N 38°02' E 023°33'0 0.0
2014-Oct-15 08:33N 38°02' E 023°33'  
Track history (hours):
 
Tides and Currents Weather Stations Pressure Air Temp Water Temp Dewpoint Dewpoint Depression Visibility Wind Speed Wind Dir Waves Ship Positions

Armony

Last reported at 2014-Oct-25 08:09 UTC. Time now 2014-Oct-26 01:03 UTC.
Position N 40°45' E 029°31'.

Length 70 m; draft 3 m.

Type: Ship. MMSI: 677041700.

Date/timePositionNaut miles runAvg speedWind from/ knotsBaromVisibWave heightAir tempDewpointWater temp
2014-Oct-25 08:09N 40°45' E 029°31'4 7.0
2014-Oct-25 07:32N 40°44' E 029°25'5 5.1
2014-Oct-25 06:33N 40°44' E 029°19'7 7.0
2014-Oct-25 05:33N 40°46' E 029°10'7 7.1
2014-Oct-25 04:33N 40°48' E 029°01'6 6.3
2014-Oct-25 03:33N 40°54' E 028°57'  
2014-Oct-19 20:17N 40°59' E 028°60'4 5.3
2014-Oct-19 19:33N 40°56' E 028°59'5 5.0
2014-Oct-19 18:32N 40°51' E 029°02'4 4.0
2014-Oct-19 17:33N 40°48' E 029°06'3 3.4
2014-Oct-19 16:33N 40°51' E 029°09'1 1.1
2014-Oct-19 15:30N 40°51' E 029°10'0 0.0
2014-Oct-19 14:24N 40°51' E 029°10'0 0.0
2014-Oct-19 13:33N 40°51' E 029°10'0 0.0
2014-Oct-19 12:21N 40°51' E 029°10'0 0.0
2014-Oct-19 11:33N 40°51' E 029°10'0 0.0
2014-Oct-19 10:27N 40°51' E 029°10'0 0.0
2014-Oct-19 09:15N 40°51' E 029°10'0 0.0
2014-Oct-19 08:33N 40°51' E 029°10'0 0.0
2014-Oct-19 07:33N 40°51' E 029°10'0 0.0
2014-Oct-19 06:27N 40°51' E 029°10'0 0.1
2014-Oct-19 05:33N 40°51' E 029°10'0 0.0
2014-Oct-19 04:27N 40°51' E 029°10'0 0.0
2014-Oct-19 03:27N 40°51' E 029°10'0 0.0
2014-Oct-19 02:33N 40°51' E 029°10'0 0.0
2014-Oct-19 01:33N 40°51' E 029°10'0 0.0
2014-Oct-19 00:21N 40°51' E 029°10'0 0.0
2014-Oct-18 23:27N 40°51' E 029°10'0 0.0
2014-Oct-18 22:21N 40°51' E 029°10'0 0.1
2014-Oct-18 21:33N 40°51' E 029°10'0 0.0
2014-Oct-18 20:33N 40°51' E 029°10'0 0.0
2014-Oct-18 19:21N 40°51' E 029°10'0 0.0
2014-Oct-18 18:33N 40°51' E 029°10'0 0.0
2014-Oct-18 17:15N 40°51' E 029°10'0 0.0
2014-Oct-18 16:27N 40°51' E 029°10'0 0.0
2014-Oct-18 15:33N 40°51' E 029°10'0 0.0
2014-Oct-18 14:27N 40°51' E 029°10'0 0.0
2014-Oct-18 13:27N 40°51' E 029°10'3 3.4
2014-Oct-18 12:32N 40°49' E 029°09'8 7.8
2014-Oct-18 11:32N 40°45' E 028°59'8 8.1
2014-Oct-18 10:32N 40°43' E 028°49'4 4.1
2014-Oct-18 09:33N 40°42' E 028°44'60 3.9
2014-Oct-17 18:17N 40°39' E 027°25'26 8.6
2014-Oct-17 15:16N 40°29' E 026°54'7 8.2
2014-Oct-17 14:24N 40°26' E 026°46'23 7.7
2014-Oct-17 11:22N 40°09' E 026°24'30 7.2
2014-Oct-17 07:09N 39°51' E 025°52'127 7.9
2014-Oct-16 15:05N 37°58' E 024°37'4 8.4
2014-Oct-16 14:33N 37°55' E 024°34'9 8.9
2014-Oct-16 13:33N 37°49' E 024°25'19 8.9
2014-Oct-16 11:28N 37°37' E 024°07'9 9.3
2014-Oct-16 10:30N 37°37' E 023°56'8 8.0
2014-Oct-16 09:33N 37°39' E 023°46'8 7.5
2014-Oct-16 08:33N 37°44' E 023°40'8 8.4
2014-Oct-16 07:33N 37°52' E 023°37'7 7.1
2014-Oct-16 06:33N 37°58' E 023°33'4 3.5
2014-Oct-16 05:33N 38°02' E 023°33'0 0.0
2014-Oct-16 04:30N 38°02' E 023°33'0 0.0
2014-Oct-16 03:30N 38°02' E 023°33'0 0.0
2014-Oct-16 02:30N 38°02' E 023°33'0 0.0
2014-Oct-16 01:30N 38°02' E 023°33'0 0.0
2014-Oct-16 00:30N 38°02' E 023°33'0 0.0
2014-Oct-15 23:30N 38°02' E 023°33'0 0.0
2014-Oct-15 22:30N 38°02' E 023°33'0 0.0
2014-Oct-15 21:30N 38°02' E 023°33'0 0.0
2014-Oct-15 20:30N 38°02' E 023°33'0 0.0
2014-Oct-15 19:24N 38°02' E 023°33'0 0.0
2014-Oct-15 18:30N 38°02' E 023°33'0 0.0
2014-Oct-15 17:24N 38°02' E 023°33'0 0.0
2014-Oct-15 16:24N 38°02' E 023°33'0 0.0
2014-Oct-15 15:06N 38°02' E 023°33'0 0.0
2014-Oct-15 14:30N 38°02' E 023°33'0 0.0
2014-Oct-15 13:33N 38°02' E 023°33'0 0.0
2014-Oct-15 10:30N 38°02' E 023°33'0 0.0
2014-Oct-15 08:33N 38°02' E 023°33'  

Dump ship's entire track history